createdAt,value
2019-01-18T00:00:58.175Z,2.87
2019-01-18T00:03:28.025Z,4.70
2019-01-18T00:05:57.486Z,2.60
2019-01-18T00:08:29.873Z,2.73
2019-01-18T00:11:17.845Z,5.23
2019-01-18T00:13:47.284Z,3.40
2019-01-18T00:16:16.554Z,2.17
2019-01-18T00:18:53.885Z,3.20
2019-01-18T00:21:23.172Z,1.80
2019-01-18T00:24:05.950Z,3.23
2019-01-18T00:26:35.288Z,2.33
2019-01-18T00:29:04.589Z,5.70
2019-01-18T00:31:33.822Z,2.80
2019-01-18T00:34:05.110Z,4.00
2019-01-18T00:36:34.069Z,2.40
2019-01-18T00:39:05.175Z,2.43
2019-01-18T00:41:34.538Z,2.07
2019-01-18T00:44:03.784Z,3.23
2019-01-18T00:46:33.180Z,3.40
2019-01-18T00:49:05.940Z,2.60
2019-01-18T00:51:35.878Z,2.53
2019-01-18T00:54:05.404Z,2.47
2019-01-18T00:56:35.882Z,1.63
2019-01-18T00:59:11.977Z,2.30
2019-01-18T01:01:41.302Z,2.07
2019-01-18T01:04:35.155Z,1.70
2019-01-18T01:07:04.684Z,3.93
2019-01-18T01:09:34.146Z,3.70
2019-01-18T01:12:23.117Z,4.27
2019-01-18T01:14:52.409Z,5.47
2019-01-18T01:17:25.077Z,2.83
2019-01-18T01:20:06.729Z,2.20
2019-01-18T01:22:36.013Z,2.50
2019-01-18T01:25:05.340Z,2.67
2019-01-18T01:27:41.933Z,2.00
2019-01-18T01:30:15.608Z,1.93
2019-01-18T01:32:46.494Z,2.10
2019-01-18T01:35:23.895Z,3.03
2019-01-18T01:37:54.269Z,2.27
2019-01-18T01:40:29.950Z,1.97
2019-01-18T01:42:59.360Z,2.80
2019-01-18T01:45:28.613Z,2.30
2019-01-18T01:47:59.119Z,3.10
2019-01-18T01:50:28.463Z,2.53
2019-01-18T01:52:58.105Z,3.77
2019-01-18T01:55:27.452Z,3.00
2019-01-18T01:57:57.122Z,2.00
2019-01-18T02:00:28.282Z,2.10
2019-01-18T02:02:57.664Z,3.20
2019-01-18T02:05:26.945Z,2.83
2019-01-18T02:08:05.947Z,2.03
2019-01-18T02:10:35.378Z,2.80
2019-01-18T02:13:04.664Z,1.83
2019-01-18T02:15:34.006Z,2.60
2019-01-18T02:18:23.116Z,2.63
2019-01-18T02:20:53.789Z,2.30
2019-01-18T02:23:24.112Z,3.07
2019-01-18T02:25:53.502Z,4.50
2019-01-18T02:28:23.049Z,3.70
2019-01-18T02:30:52.345Z,2.77
2019-01-18T02:33:24.087Z,2.20
2019-01-18T02:35:53.950Z,4.13
2019-01-18T02:38:23.895Z,3.70
2019-01-18T02:40:53.241Z,1.50
2019-01-18T02:43:22.661Z,3.23
2019-01-18T02:45:52.012Z,3.70
2019-01-18T02:48:23.155Z,1.50
2019-01-18T02:51:06.001Z,1.60
2019-01-18T02:53:35.293Z,2.90
2019-01-18T02:56:05.991Z,2.50
2019-01-18T02:58:48.046Z,2.53
2019-01-18T03:01:30.014Z,1.93
2019-01-18T03:04:29.504Z,2.57
2019-01-18T03:06:59.456Z,1.80
2019-01-18T03:09:29.053Z,1.87
2019-01-18T03:11:58.532Z,1.50
2019-01-18T03:14:36.054Z,1.47
2019-01-18T03:17:18.088Z,2.80
2019-01-18T03:19:47.534Z,2.30
2019-01-18T03:22:23.105Z,2.60
2019-01-18T03:24:52.453Z,6.10
2019-01-18T03:27:21.732Z,2.43
2019-01-18T03:30:19.176Z,2.47
2019-01-18T03:32:43.515Z,4.30
2019-01-18T03:35:14.324Z,3.20
2019-01-18T03:37:49.369Z,2.97
2019-01-18T03:40:24.709Z,2.00
2019-01-18T03:42:59.941Z,1.63
2019-01-18T03:45:29.181Z,1.37
2019-01-18T03:47:59.863Z,1.90
2019-01-18T03:50:29.740Z,2.53
2019-01-18T03:53:06.885Z,1.47
2019-01-18T03:55:36.297Z,3.80
2019-01-18T03:58:05.577Z,2.10
2019-01-18T04:01:05.213Z,1.50
2019-01-18T04:03:42.077Z,2.60
2019-01-18T04:06:11.395Z,2.93
2019-01-18T04:08:40.637Z,1.87
2019-01-18T04:11:09.891Z,1.30
2019-01-18T04:13:39.364Z,1.53
2019-01-18T04:16:59.303Z,1.77
2019-01-18T04:19:28.678Z,1.37
2019-01-18T04:21:57.958Z,1.50
2019-01-18T04:24:27.196Z,1.20
2019-01-18T04:26:56.597Z,3.03
2019-01-18T04:29:36.133Z,3.03
2019-01-18T04:32:12.008Z,1.93
2019-01-18T04:34:41.465Z,1.30
2019-01-18T04:37:11.989Z,2.10
2019-01-18T04:39:48.081Z,2.10
2019-01-18T04:42:17.645Z,3.63
2019-01-18T04:44:48.056Z,1.97
2019-01-18T04:47:17.402Z,2.93
2019-01-18T04:49:59.970Z,1.30
2019-01-18T04:52:36.081Z,1.40
2019-01-18T04:55:07.066Z,3.13
2019-01-18T04:57:47.997Z,2.80
2019-01-18T05:00:22.618Z,1.93
2019-01-18T05:02:59.306Z,4.00
2019-01-18T05:05:30.602Z,1.53
2019-01-18T05:08:00.034Z,3.23
2019-01-18T05:10:29.935Z,3.23
2019-01-18T05:13:00.421Z,2.50
2019-01-18T05:15:31.932Z,1.50
2019-01-18T05:18:01.197Z,1.23
2019-01-18T05:20:30.431Z,3.10
2019-01-18T05:22:59.819Z,1.43
2019-01-18T05:25:29.088Z,1.63
2019-01-18T05:27:58.397Z,2.10
2019-01-18T05:30:30.733Z,1.73
2019-01-18T05:33:00.101Z,1.50
2019-01-18T05:35:29.370Z,2.03
2019-01-18T05:38:00.128Z,1.23
2019-01-18T05:40:48.153Z,3.17
2019-01-18T05:43:24.151Z,2.03
2019-01-18T05:45:53.611Z,1.50
2019-01-18T05:48:30.169Z,1.13
2019-01-18T05:51:00.052Z,1.50
2019-01-18T05:53:29.890Z,2.77
2019-01-18T05:56:06.471Z,1.70
2019-01-18T05:58:42.036Z,2.80
2019-01-18T06:01:18.613Z,3.70
2019-01-18T06:03:47.983Z,2.30
2019-01-18T06:06:18.118Z,1.40
2019-01-18T06:08:47.335Z,1.10
2019-01-18T06:11:18.721Z,1.63
2019-01-18T06:13:48.045Z,3.30
2019-01-18T06:16:18.010Z,2.63
2019-01-18T06:18:48.087Z,4.37
2019-01-18T06:21:17.269Z,1.77
2019-01-18T06:23:46.870Z,1.40
2019-01-18T06:26:16.245Z,2.53
2019-01-18T06:28:45.696Z,4.97
2019-01-18T06:31:15.066Z,1.20
2019-01-18T06:33:44.322Z,1.73
2019-01-18T06:36:18.194Z,1.60
2019-01-18T06:38:47.625Z,2.57
2019-01-18T06:41:43.071Z,3.00
2019-01-18T06:44:12.440Z,2.00
2019-01-18T06:46:42.197Z,1.93
2019-01-18T06:49:24.190Z,5.53
2019-01-18T06:51:53.665Z,3.50
2019-01-18T06:54:23.134Z,1.73
2019-01-18T06:56:52.392Z,1.80
2019-01-18T06:59:21.770Z,2.30
2019-01-18T07:01:54.090Z,3.07
2019-01-18T07:04:53.345Z,2.30
2019-01-18T07:07:22.632Z,2.53
2019-01-18T07:10:06.950Z,4.50
2019-01-18T07:12:36.443Z,2.10
2019-01-18T07:15:06.867Z,3.60
2019-01-18T07:17:36.949Z,2.43
2019-01-18T07:20:06.680Z,3.17
2019-01-18T07:22:36.062Z,3.80
2019-01-18T07:25:14.921Z,4.00
2019-01-18T07:27:44.142Z,3.63
2019-01-18T07:30:16.917Z,3.13
2019-01-18T07:32:46.311Z,3.60
2019-01-18T07:35:16.346Z,5.43
2019-01-18T07:37:45.755Z,2.83
2019-01-18T07:40:15.039Z,2.50
2019-01-18T07:42:44.278Z,5.70
2019-01-18T07:45:24.312Z,4.23
2019-01-18T07:47:53.624Z,4.43
2019-01-18T07:50:41.344Z,2.93
2019-01-18T07:53:10.552Z,4.23
2019-01-18T07:55:54.142Z,4.23
2019-01-18T07:58:24.172Z,5.07
2019-01-18T08:00:53.490Z,6.63
2019-01-18T08:03:47.375Z,3.30
2019-01-18T08:06:18.116Z,5.00
2019-01-18T08:08:47.367Z,3.23
2019-01-18T08:11:17.831Z,5.70
2019-01-18T08:13:48.263Z,4.40
2019-01-18T08:16:17.533Z,3.20
2019-01-18T08:18:46.812Z,3.20
2019-01-18T08:21:16.931Z,5.10
2019-01-18T08:23:47.830Z,3.40
2019-01-18T08:26:17.093Z,3.70
2019-01-18T08:28:46.531Z,5.90
2019-01-18T08:31:18.242Z,4.57
2019-01-18T08:33:47.573Z,5.40
2019-01-18T08:36:16.857Z,3.97
2019-01-18T08:38:46.152Z,6.03
2019-01-18T08:41:30.319Z,4.63
2019-01-18T08:43:59.706Z,6.13
2019-01-18T08:46:28.972Z,7.93
2019-01-18T08:48:58.216Z,4.50
2019-01-18T08:51:53.426Z,5.17
2019-01-18T08:54:24.144Z,7.10
2019-01-18T08:56:53.447Z,5.57
2019-01-18T08:59:24.180Z,5.13
2019-01-18T09:01:54.054Z,5.10
2019-01-18T09:04:23.409Z,4.40
2019-01-18T09:06:53.474Z,6.67
2019-01-18T09:09:24.127Z,6.00
2019-01-18T09:12:11.372Z,4.40
2019-01-18T09:14:40.669Z,8.23
2019-01-18T09:17:09.906Z,7.50
2019-01-18T09:19:39.190Z,7.10
2019-01-18T09:22:17.376Z,9.50
2019-01-18T09:24:47.757Z,5.23
2019-01-18T09:27:17.302Z,4.30
2019-01-18T09:29:46.705Z,5.30
2019-01-18T09:32:18.341Z,6.27
2019-01-18T09:34:47.774Z,7.60
2019-01-18T09:37:18.362Z,6.83
2019-01-18T09:39:48.293Z,6.40
2019-01-18T09:42:17.758Z,6.10
2019-01-18T09:45:05.748Z,6.53
2019-01-18T09:47:35.221Z,8.80
2019-01-18T09:50:06.361Z,6.07
2019-01-18T09:52:36.279Z,5.50
2019-01-18T09:55:06.400Z,7.00
2019-01-18T09:57:35.914Z,6.70
2019-01-18T10:00:10.325Z,5.90
2019-01-18T10:02:48.309Z,6.27
2019-01-18T10:05:17.678Z,8.70
2019-01-18T10:07:48.260Z,6.70
2019-01-18T10:10:24.304Z,9.40
2019-01-18T10:12:53.779Z,7.60
2019-01-18T10:15:25.551Z,5.17
2019-01-18T10:18:00.627Z,7.70
2019-01-18T10:20:25.766Z,6.50
2019-01-18T10:22:55.154Z,6.93
2019-01-18T10:25:42.204Z,5.70
2019-01-18T10:28:11.513Z,6.93
2019-01-18T10:30:40.734Z,8.27
2019-01-18T10:33:12.344Z,5.57
2019-01-18T10:35:48.253Z,7.13
2019-01-18T10:38:41.485Z,8.17
2019-01-18T10:41:12.167Z,7.27
2019-01-18T10:43:42.377Z,6.43
2019-01-18T10:46:12.787Z,7.13
2019-01-18T10:48:42.235Z,7.60
2019-01-18T10:51:11.651Z,6.63
2019-01-18T10:53:40.954Z,9.10
2019-01-18T10:56:10.937Z,7.07
2019-01-18T10:58:48.254Z,5.80
2019-01-18T11:01:17.722Z,6.10
2019-01-18T11:04:17.487Z,6.87
2019-01-18T11:06:54.433Z,10.53
2019-01-18T11:09:30.267Z,11.03
2019-01-18T11:11:59.698Z,8.87
2019-01-18T11:14:29.041Z,7.97
2019-01-18T11:16:58.553Z,7.10
2019-01-18T11:19:47.430Z,6.87
2019-01-18T11:22:16.799Z,8.40
2019-01-18T11:25:05.966Z,8.30
2019-01-18T11:27:37.767Z,7.00
2019-01-18T11:30:24.525Z,6.67
2019-01-18T11:32:53.990Z,8.73
2019-01-18T11:35:24.269Z,6.93
2019-01-18T11:37:55.205Z,7.03
2019-01-18T11:40:36.256Z,7.90
2019-01-18T11:43:05.665Z,8.33
2019-01-18T11:45:34.929Z,7.03
2019-01-18T11:48:05.334Z,7.27
2019-01-18T11:50:59.503Z,8.47
2019-01-18T11:53:47.465Z,8.70
2019-01-18T11:56:16.719Z,6.53
2019-01-18T11:58:46.119Z,8.70
2019-01-18T12:01:16.503Z,5.60
2019-01-18T12:03:45.898Z,7.00
2019-01-18T12:06:15.267Z,6.27
2019-01-18T12:09:11.550Z,5.60
2019-01-18T12:11:42.294Z,8.93
2019-01-18T12:14:11.587Z,5.87
2019-01-18T12:17:11.666Z,7.53
2019-01-18T12:19:42.220Z,8.20
2019-01-18T12:22:11.495Z,8.10
2019-01-18T12:24:42.201Z,6.77
2019-01-18T12:27:30.371Z,5.60
2019-01-18T12:29:59.822Z,9.10
2019-01-18T12:33:16.590Z,7.00
2019-01-18T12:35:45.918Z,5.90
2019-01-18T12:38:15.275Z,5.40
2019-01-18T12:41:11.551Z,7.03
2019-01-18T12:43:54.315Z,6.30
2019-01-18T12:46:24.400Z,5.33
2019-01-18T12:48:53.834Z,7.90
2019-01-18T12:51:53.591Z,8.00
2019-01-18T12:54:22.959Z,6.00
2019-01-18T12:56:52.389Z,5.90
2019-01-18T12:59:25.089Z,6.53
2019-01-18T13:01:54.513Z,5.87
2019-01-18T13:04:23.727Z,8.83
2019-01-18T13:07:06.448Z,4.60
2019-01-18T13:09:59.474Z,5.93
2019-01-18T13:12:28.788Z,6.10
2019-01-18T13:14:58.998Z,4.87
2019-01-18T13:17:36.419Z,4.40
2019-01-18T13:20:06.465Z,6.70
2019-01-18T13:22:35.828Z,5.13
2019-01-18T13:25:09.466Z,6.37
2019-01-18T13:27:38.910Z,4.83
2019-01-18T13:30:14.321Z,5.47
2019-01-18T13:32:43.656Z,6.27
2019-01-18T13:35:19.150Z,6.33
2019-01-18T13:38:06.338Z,5.37
2019-01-18T13:40:35.719Z,5.00
2019-01-18T13:43:05.983Z,5.77
2019-01-18T13:45:35.767Z,4.83
2019-01-18T13:48:05.054Z,4.37
2019-01-18T13:50:34.323Z,4.50
2019-01-18T13:53:03.638Z,4.17
2019-01-18T13:55:32.953Z,3.47
2019-01-18T13:58:12.546Z,6.27
2019-01-18T14:00:42.475Z,6.00
2019-01-18T14:03:11.939Z,2.97
2019-01-18T14:05:41.202Z,3.40
2019-01-18T14:08:46.675Z,3.80
2019-01-18T14:11:17.484Z,5.00
2019-01-18T14:13:46.794Z,3.20
2019-01-18T14:16:16.086Z,3.00
2019-01-18T14:18:54.523Z,3.40
2019-01-18T14:21:24.374Z,3.37
2019-01-18T14:23:54.506Z,3.10
2019-01-18T14:26:24.437Z,3.47
2019-01-18T14:28:54.123Z,2.70
2019-01-18T14:31:23.567Z,2.20
2019-01-18T14:33:52.825Z,2.67
2019-01-18T14:36:22.178Z,3.70
2019-01-18T14:38:51.464Z,2.87
2019-01-18T14:42:04.755Z,3.13
2019-01-18T14:44:34.092Z,2.43
2019-01-18T14:47:12.363Z,5.80
2019-01-18T14:49:41.969Z,2.70
2019-01-18T14:52:18.452Z,3.77
2019-01-18T14:54:54.494Z,3.70
2019-01-18T14:57:23.961Z,2.17
2019-01-18T14:59:53.239Z,3.57
2019-01-18T15:02:22.627Z,3.30
2019-01-18T15:04:54.544Z,3.00
2019-01-18T15:07:23.862Z,4.10
2019-01-18T15:09:57.586Z,3.33
2019-01-18T15:12:25.497Z,3.00
2019-01-18T15:14:54.747Z,2.97
2019-01-18T15:17:24.151Z,2.67
2019-01-18T15:19:53.616Z,2.70
2019-01-18T15:22:24.616Z,2.30
2019-01-18T15:24:54.006Z,3.30
2019-01-18T15:27:23.363Z,3.20
2019-01-18T15:29:52.623Z,2.43
2019-01-18T15:32:21.967Z,2.60
2019-01-18T15:35:08.289Z,2.80
2019-01-18T15:37:37.791Z,2.83
2019-01-18T15:40:14.379Z,2.83
2019-01-18T15:42:43.747Z,3.97
2019-01-18T15:45:13.194Z,2.50
2019-01-18T15:47:42.518Z,3.43
2019-01-18T15:50:15.083Z,2.67
2019-01-18T15:52:55.844Z,3.03
2019-01-18T15:55:25.205Z,3.27
2019-01-18T15:58:00.539Z,2.77
2019-01-18T16:00:32.212Z,2.53
2019-01-18T16:03:01.675Z,2.60
2019-01-18T16:05:53.732Z,4.37
2019-01-18T16:08:27.693Z,2.03
2019-01-18T16:10:56.944Z,2.60
2019-01-18T16:13:27.434Z,2.53
2019-01-18T16:16:22.829Z,3.10
2019-01-18T16:18:52.209Z,2.20
2019-01-18T16:21:34.659Z,2.53
2019-01-18T16:24:11.596Z,4.47
2019-01-18T16:26:40.941Z,2.60
2019-01-18T16:29:10.213Z,2.67
2019-01-18T16:31:39.534Z,3.00
2019-01-18T16:34:08.826Z,2.73
2019-01-18T16:36:48.510Z,4.60
2019-01-18T16:39:17.903Z,2.73
2019-01-18T16:41:47.166Z,2.60
2019-01-18T16:44:16.482Z,4.87
2019-01-18T16:46:54.467Z,4.20
2019-01-18T16:49:23.896Z,2.50
2019-01-18T16:52:17.808Z,3.10
2019-01-18T16:54:47.151Z,4.17
2019-01-18T16:57:18.419Z,3.30
2019-01-18T16:59:47.682Z,3.17
2019-01-18T17:02:17.013Z,3.40
2019-01-18T17:04:48.581Z,6.90
2019-01-18T17:07:55.375Z,4.27
2019-01-18T17:10:53.736Z,3.53
2019-01-18T17:13:23.212Z,7.10
2019-01-18T17:16:00.556Z,2.83
2019-01-18T17:18:47.790Z,4.23
2019-01-18T17:21:17.205Z,4.67
2019-01-18T17:23:48.483Z,3.37
2019-01-18T17:26:47.753Z,5.10
2019-01-18T17:29:16.943Z,3.30
2019-01-18T17:31:46.109Z,3.60
2019-01-18T17:34:18.467Z,6.00
2019-01-18T17:37:09.937Z,3.47
2019-01-18T17:40:19.504Z,4.40
2019-01-18T17:43:14.739Z,5.03
2019-01-18T17:46:37.256Z,4.90
2019-01-18T17:49:34.766Z,5.17
2019-01-18T17:52:28.845Z,6.33
2019-01-18T17:55:42.865Z,3.80
2019-01-18T17:58:58.817Z,6.10
2019-01-18T18:01:51.423Z,4.37
2019-01-18T18:05:30.022Z,3.80
2019-01-18T18:08:42.981Z,4.10
2019-01-18T18:11:38.551Z,4.00
2019-01-18T18:14:50.836Z,5.43
2019-01-18T18:17:40.762Z,4.60
2019-01-18T18:21:06.634Z,4.07
2019-01-18T18:24:13.218Z,5.17
2019-01-18T18:27:35.696Z,4.17
2019-01-18T18:31:04.077Z,4.17
2019-01-18T18:34:07.261Z,4.53
2019-01-18T18:37:11.658Z,4.97
2019-01-18T18:40:25.193Z,5.90
2019-01-18T18:43:26.256Z,4.00
2019-01-18T18:46:48.976Z,5.30
2019-01-18T18:49:55.109Z,4.60
2019-01-18T18:52:55.330Z,4.60
2019-01-18T18:55:55.761Z,6.03
2019-01-18T18:59:08.052Z,5.30
2019-01-18T19:02:18.912Z,4.70
2019-01-18T19:05:17.269Z,4.70
2019-01-18T19:08:32.300Z,5.00
2019-01-18T19:11:32.241Z,8.23
2019-01-18T19:14:31.477Z,7.00
2019-01-18T19:17:43.699Z,5.70
2019-01-18T19:20:42.061Z,5.87
2019-01-18T19:23:54.672Z,5.93
2019-01-18T19:27:06.607Z,5.67
2019-01-18T19:29:55.870Z,5.37
2019-01-18T19:32:55.794Z,6.13
2019-01-18T19:36:04.646Z,7.60
2019-01-18T19:39:01.195Z,6.90
2019-01-18T19:42:01.485Z,6.60
2019-01-18T19:45:13.064Z,6.10
2019-01-18T19:48:10.634Z,7.03
2019-01-18T19:51:16.827Z,5.03
2019-01-18T19:54:01.351Z,5.83
2019-01-18T19:57:02.422Z,6.60
2019-01-18T20:00:17.727Z,6.47
2019-01-18T20:03:28.353Z,6.93
2019-01-18T20:06:42.946Z,5.77
2019-01-18T20:10:00.622Z,8.20
2019-01-18T20:13:20.109Z,6.57
2019-01-18T20:16:25.041Z,6.90
2019-01-18T20:19:28.356Z,5.20
2019-01-18T20:22:33.537Z,6.20
2019-01-18T20:25:59.334Z,6.87
2019-01-18T20:29:16.035Z,6.37
2019-01-18T20:32:09.493Z,6.30
2019-01-18T20:35:32.443Z,8.30
2019-01-18T20:38:31.132Z,5.83
2019-01-18T20:41:53.328Z,9.90
2019-01-18T20:44:43.354Z,7.50
2019-01-18T20:47:45.362Z,8.20
2019-01-18T20:50:36.376Z,7.63
2019-01-18T20:53:23.777Z,7.10
2019-01-18T20:56:47.387Z,8.70
2019-01-18T20:59:37.434Z,6.67
2019-01-18T21:02:25.257Z,6.77
2019-01-18T21:05:09.945Z,7.43
2019-01-18T21:08:15.637Z,5.83
2019-01-18T21:11:24.958Z,8.30
2019-01-18T21:14:41.338Z,10.00
2019-01-18T21:17:50.774Z,7.33
2019-01-18T21:20:55.471Z,6.37
2019-01-18T21:23:53.706Z,7.30
2019-01-18T21:27:04.528Z,6.60
2019-01-18T21:30:27.471Z,7.43
2019-01-18T21:33:38.813Z,7.20
2019-01-18T21:36:43.504Z,8.23
2019-01-18T21:39:46.182Z,6.50
2019-01-18T21:42:40.082Z,8.27
2019-01-18T21:45:36.335Z,7.63
2019-01-18T21:48:40.257Z,9.30
2019-01-18T21:51:46.794Z,8.30
2019-01-18T21:54:50.614Z,7.60
2019-01-18T21:58:03.140Z,7.50
2019-01-18T22:01:14.192Z,7.13
2019-01-18T22:03:59.588Z,6.07
2019-01-18T22:07:08.805Z,6.60
2019-01-18T22:10:00.496Z,7.10
2019-01-18T22:13:05.844Z,7.13
2019-01-18T22:16:27.192Z,8.60
2019-01-18T22:19:33.709Z,8.87
2019-01-18T22:22:21.285Z,10.00
2019-01-18T22:25:46.907Z,7.73
2019-01-18T22:28:51.350Z,8.60
2019-01-18T22:31:53.011Z,7.50
2019-01-18T22:34:37.647Z,8.33
2019-01-18T22:37:56.553Z,6.97
2019-01-18T22:40:53.810Z,8.47
2019-01-18T22:44:06.273Z,10.57
2019-01-18T22:47:18.491Z,7.90
2019-01-18T22:50:29.284Z,6.80
2019-01-18T22:53:29.818Z,8.23
2019-01-18T22:56:26.438Z,9.60
2019-01-18T22:59:40.062Z,8.53
2019-01-18T23:02:30.871Z,8.93
2019-01-18T23:05:46.154Z,9.13
2019-01-18T23:08:46.075Z,10.80
2019-01-18T23:11:30.227Z,9.87
2019-01-18T23:14:29.438Z,10.97
2019-01-18T23:17:34.119Z,7.50
2019-01-18T23:21:08.964Z,11.07
2019-01-18T23:24:22.224Z,8.50
2019-01-18T23:27:37.524Z,9.90
2019-01-18T23:30:21.651Z,7.90
2019-01-18T23:33:20.052Z,7.77
2019-01-18T23:36:26.216Z,7.50
2019-01-18T23:39:35.497Z,8.13
2019-01-18T23:42:52.265Z,10.40
2019-01-18T23:45:58.831Z,8.10
2019-01-18T23:49:03.744Z,8.47
2019-01-18T23:52:11.104Z,8.47
2019-01-18T23:55:11.191Z,9.60
2019-01-18T23:58:16.150Z,11.07
